sensor_id;sensor_type;location;lat;lon;timestamp;P1;durP1;ratioP1;P2;durP2;ratioP2
495;SDS011;39559;48.630;9.162;2024-02-21T00:01:30;10.60;;;5.80;;
495;SDS011;39559;48.630;9.162;2024-02-21T00:03:55;10.10;;;5.63;;
495;SDS011;39559;48.630;9.162;2024-02-21T00:06:21;11.30;;;5.93;;
495;SDS011;39559;48.630;9.162;2024-02-21T00:08:46;16.03;;;6.40;;
495;SDS011;39559;48.630;9.162;2024-02-21T00:11:12;13.63;;;5.27;;
495;SDS011;39559;48.630;9.162;2024-02-21T00:13:37;12.60;;;5.50;;
495;SDS011;39559;48.630;9.162;2024-02-21T00:18:13;10.65;;;5.85;;
495;SDS011;39559;48.630;9.162;2024-02-21T00:20:39;11.50;;;6.50;;
495;SDS011;39559;48.630;9.162;2024-02-21T00:23:04;13.20;;;7.00;;
495;SDS011;39559;48.630;9.162;2024-02-21T00:25:30;14.37;;;7.23;;
495;SDS011;39559;48.630;9.162;2024-02-21T00:27:55;10.17;;;5.93;;
495;SDS011;39559;48.630;9.162;2024-02-21T00:30:21;14.00;;;6.70;;
495;SDS011;39559;48.630;9.162;2024-02-21T00:32:46;15.47;;;6.50;;
495;SDS011;39559;48.630;9.162;2024-02-21T00:35:13;12.83;;;5.80;;
495;SDS011;39559;48.630;9.162;2024-02-21T00:37:39;11.65;;;5.88;;
495;SDS011;39559;48.630;9.162;2024-02-21T00:42:13;11.18;;;6.15;;
495;SDS011;39559;48.630;9.162;2024-02-21T00:44:38;13.17;;;6.00;;
495;SDS011;39559;48.630;9.162;2024-02-21T00:47:04;10.50;;;5.43;;
495;SDS011;39559;48.630;9.162;2024-02-21T00:49:30;13.90;;;6.13;;
495;SDS011;39559;48.630;9.162;2024-02-21T00:51:55;10.63;;;5.70;;
495;SDS011;39559;48.630;9.162;2024-02-21T00:54:21;13.50;;;5.70;;
495;SDS011;39559;48.630;9.162;2024-02-21T00:56:47;10.07;;;5.53;;
495;SDS011;39559;48.630;9.162;2024-02-21T00:59:13;12.93;;;5.57;;
495;SDS011;39559;48.630;9.162;2024-02-21T01:01:39;11.53;;;6.03;;
495;SDS011;39559;48.630;9.162;2024-02-21T01:06:13;12.48;;;6.18;;
495;SDS011;39559;48.630;9.162;2024-02-21T01:08:38;12.03;;;6.23;;
495;SDS011;39559;48.630;9.162;2024-02-21T01:11:04;10.97;;;5.30;;
495;SDS011;39559;48.630;9.162;2024-02-21T01:13:29;12.00;;;6.00;;
495;SDS011;39559;48.630;9.162;2024-02-21T01:15:55;10.40;;;5.90;;
495;SDS011;39559;48.630;9.162;2024-02-21T01:18:20;11.33;;;5.70;;
495;SDS011;39559;48.630;9.162;2024-02-21T01:20:46;12.70;;;6.37;;
495;SDS011;39559;48.630;9.162;2024-02-21T01:23:11;9.83;;;5.63;;
495;SDS011;39559;48.630;9.162;2024-02-21T01:25:37;14.07;;;6.00;;
495;SDS011;39559;48.630;9.162;2024-02-21T01:30:13;11.63;;;6.10;;
495;SDS011;39559;48.630;9.162;2024-02-21T01:32:38;11.60;;;6.53;;
495;SDS011;39559;48.630;9.162;2024-02-21T01:35:04;17.17;;;6.47;;
495;SDS011;39559;48.630;9.162;2024-02-21T01:37:30;10.90;;;5.90;;
495;SDS011;39559;48.630;9.162;2024-02-21T01:39:55;12.17;;;6.20;;
495;SDS011;39559;48.630;9.162;2024-02-21T01:42:21;13.20;;;6.27;;
495;SDS011;39559;48.630;9.162;2024-02-21T01:44:46;10.20;;;6.00;;
495;SDS011;39559;48.630;9.162;2024-02-21T01:47:12;11.37;;;6.40;;
495;SDS011;39559;48.630;9.162;2024-02-21T01:49:42;13.63;;;6.50;;
495;SDS011;39559;48.630;9.162;2024-02-21T01:54:16;11.35;;;5.70;;
495;SDS011;39559;48.630;9.162;2024-02-21T01:56:43;13.65;;;5.93;;
495;SDS011;39559;48.630;9.162;2024-02-21T01:59:10;11.73;;;5.75;;
495;SDS011;39559;48.630;9.162;2024-02-21T02:01:37;13.35;;;5.60;;
495;SDS011;39559;48.630;9.162;2024-02-21T02:04:02;13.50;;;5.23;;
495;SDS011;39559;48.630;9.162;2024-02-21T02:06:30;10.52;;;6.00;;
495;SDS011;39559;48.630;9.162;2024-02-21T02:08:56;13.77;;;5.65;;
495;SDS011;39559;48.630;9.162;2024-02-21T02:11:22;12.83;;;5.93;;
495;SDS011;39559;48.630;9.162;2024-02-21T02:13:48;11.30;;;5.67;;
495;SDS011;39559;48.630;9.162;2024-02-21T02:18:13;11.88;;;5.57;;
495;SDS011;39559;48.630;9.162;2024-02-21T02:20:39;14.60;;;5.85;;
495;SDS011;39559;48.630;9.162;2024-02-21T02:23:38;13.27;;;5.87;;
495;SDS011;39559;48.630;9.162;2024-02-21T02:25:57;11.25;;;6.00;;
495;SDS011;39559;48.630;9.162;2024-02-21T02:28:23;12.63;;;6.20;;
495;SDS011;39559;48.630;9.162;2024-02-21T02:30:49;14.15;;;5.30;;
495;SDS011;39559;48.630;9.162;2024-02-21T02:33:15;14.07;;;6.33;;
495;SDS011;39559;48.630;9.162;2024-02-21T02:35:44;9.90;;;5.57;;
495;SDS011;39559;48.630;9.162;2024-02-21T02:38:10;14.55;;;6.32;;
495;SDS011;39559;48.630;9.162;2024-02-21T02:42:12;13.85;;;5.60;;
495;SDS011;39559;48.630;9.162;2024-02-21T02:44:38;15.03;;;5.80;;
495;SDS011;39559;48.630;9.162;2024-02-21T02:47:03;13.07;;;6.27;;
495;SDS011;39559;48.630;9.162;2024-02-21T02:49:29;12.23;;;5.33;;
495;SDS011;39559;48.630;9.162;2024-02-21T02:51:55;14.17;;;5.23;;
495;SDS011;39559;48.630;9.162;2024-02-21T02:54:21;14.23;;;5.60;;
495;SDS011;39559;48.630;9.162;2024-02-21T02:56:46;11.68;;;5.05;;
495;SDS011;39559;48.630;9.162;2024-02-21T02:59:12;9.43;;;5.00;;
495;SDS011;39559;48.630;9.162;2024-02-21T03:01:37;10.50;;;5.37;;
495;SDS011;39559;48.630;9.162;2024-02-21T03:06:12;11.57;;;5.38;;
495;SDS011;39559;48.630;9.162;2024-02-21T03:08:38;10.50;;;5.20;;
495;SDS011;39559;48.630;9.162;2024-02-21T03:11:05;9.10;;;4.57;;
495;SDS011;39559;48.630;9.162;2024-02-21T03:13:30;9.40;;;5.03;;
495;SDS011;39559;48.630;9.162;2024-02-21T03:15:56;15.07;;;5.23;;
495;SDS011;39559;48.630;9.162;2024-02-21T03:18:21;11.23;;;5.60;;
495;SDS011;39559;48.630;9.162;2024-02-21T03:20:47;9.93;;;5.00;;
495;SDS011;39559;48.630;9.162;2024-02-21T03:23:12;10.53;;;5.03;;
495;SDS011;39559;48.630;9.162;2024-02-21T03:25:38;10.53;;;5.03;;
495;SDS011;39559;48.630;9.162;2024-02-21T03:30:13;9.95;;;5.55;;
495;SDS011;39559;48.630;9.162;2024-02-21T03:32:38;12.17;;;6.90;;
495;SDS011;39559;48.630;9.162;2024-02-21T03:35:04;11.93;;;5.10;;
495;SDS011;39559;48.630;9.162;2024-02-21T03:37:30;10.70;;;5.13;;
495;SDS011;39559;48.630;9.162;2024-02-21T03:39:56;10.70;;;5.33;;
495;SDS011;39559;48.630;9.162;2024-02-21T03:42:21;12.10;;;4.97;;
495;SDS011;39559;48.630;9.162;2024-02-21T03:44:46;10.93;;;4.50;;
495;SDS011;39559;48.630;9.162;2024-02-21T03:47:12;10.40;;;4.33;;
495;SDS011;39559;48.630;9.162;2024-02-21T03:49:37;14.27;;;5.27;;
495;SDS011;39559;48.630;9.162;2024-02-21T03:54:13;9.80;;;4.97;;
495;SDS011;39559;48.630;9.162;2024-02-21T03:56:38;9.07;;;4.80;;
495;SDS011;39559;48.630;9.162;2024-02-21T03:59:05;13.13;;;4.97;;
495;SDS011;39559;48.630;9.162;2024-02-21T04:01:32;12.65;;;5.00;;
495;SDS011;39559;48.630;9.162;2024-02-21T04:03:57;11.60;;;4.97;;
495;SDS011;39559;48.630;9.162;2024-02-21T04:06:23;13.10;;;5.00;;
495;SDS011;39559;48.630;9.162;2024-02-21T04:08:48;8.93;;;4.20;;
495;SDS011;39559;48.630;9.162;2024-02-21T04:11:14;11.20;;;4.60;;
495;SDS011;39559;48.630;9.162;2024-02-21T04:13:39;9.30;;;4.70;;
495;SDS011;39559;48.630;9.162;2024-02-21T04:18:13;8.68;;;3.83;;
495;SDS011;39559;48.630;9.162;2024-02-21T04:20:40;8.98;;;4.05;;
495;SDS011;39559;48.630;9.162;2024-02-21T04:23:05;9.50;;;4.53;;
495;SDS011;39559;48.630;9.162;2024-02-21T04:25:31;8.40;;;4.40;;
495;SDS011;39559;48.630;9.162;2024-02-21T04:27:56;11.27;;;4.53;;
495;SDS011;39559;48.630;9.162;2024-02-21T04:30:22;10.63;;;4.53;;
495;SDS011;39559;48.630;9.162;2024-02-21T04:32:47;11.77;;;4.87;;
495;SDS011;39559;48.630;9.162;2024-02-21T04:35:13;9.10;;;4.63;;
495;SDS011;39559;48.630;9.162;2024-02-21T04:37:38;10.23;;;4.53;;
495;SDS011;39559;48.630;9.162;2024-02-21T04:42:13;11.57;;;4.90;;
495;SDS011;39559;48.630;9.162;2024-02-21T04:44:38;11.77;;;4.80;;
495;SDS011;39559;48.630;9.162;2024-02-21T04:47:04;12.10;;;5.17;;
495;SDS011;39559;48.630;9.162;2024-02-21T04:49:30;12.97;;;5.37;;
495;SDS011;39559;48.630;9.162;2024-02-21T04:51:55;11.57;;;4.50;;
495;SDS011;39559;48.630;9.162;2024-02-21T04:54:21;10.67;;;4.77;;
495;SDS011;39559;48.630;9.162;2024-02-21T04:56:46;11.70;;;4.50;;
495;SDS011;39559;48.630;9.162;2024-02-21T04:59:12;10.80;;;4.87;;
495;SDS011;39559;48.630;9.162;2024-02-21T05:01:37;11.73;;;4.70;;
495;SDS011;39559;48.630;9.162;2024-02-21T05:06:13;9.18;;;4.40;;
495;SDS011;39559;48.630;9.162;2024-02-21T05:08:39;11.30;;;5.17;;
495;SDS011;39559;48.630;9.162;2024-02-21T05:11:05;10.93;;;5.20;;
495;SDS011;39559;48.630;9.162;2024-02-21T05:13:31;11.07;;;5.10;;
495;SDS011;39559;48.630;9.162;2024-02-21T05:15:56;11.03;;;5.30;;
495;SDS011;39559;48.630;9.162;2024-02-21T05:18:22;14.80;;;5.70;;
495;SDS011;39559;48.630;9.162;2024-02-21T05:20:47;9.70;;;4.63;;
495;SDS011;39559;48.630;9.162;2024-02-21T05:23:13;12.50;;;5.07;;
495;SDS011;39559;48.630;9.162;2024-02-21T05:25:38;8.87;;;4.40;;
495;SDS011;39559;48.630;9.162;2024-02-21T05:30:13;13.30;;;4.30;;
495;SDS011;39559;48.630;9.162;2024-02-21T05:32:39;10.80;;;4.70;;
495;SDS011;39559;48.630;9.162;2024-02-21T05:35:05;16.83;;;5.10;;
495;SDS011;39559;48.630;9.162;2024-02-21T05:37:30;10.00;;;4.80;;
495;SDS011;39559;48.630;9.162;2024-02-21T05:39:56;10.50;;;4.80;;
495;SDS011;39559;48.630;9.162;2024-02-21T05:42:21;10.53;;;4.90;;
495;SDS011;39559;48.630;9.162;2024-02-21T05:44:47;12.50;;;4.53;;
495;SDS011;39559;48.630;9.162;2024-02-21T05:47:12;9.53;;;4.53;;
495;SDS011;39559;48.630;9.162;2024-02-21T05:49:40;13.82;;;4.97;;
495;SDS011;39559;48.630;9.162;2024-02-21T05:54:13;12.23;;;5.30;;
495;SDS011;39559;48.630;9.162;2024-02-21T05:56:39;10.50;;;4.20;;
495;SDS011;39559;48.630;9.162;2024-02-21T05:59:05;8.50;;;4.33;;
495;SDS011;39559;48.630;9.162;2024-02-21T06:01:30;11.73;;;4.77;;
495;SDS011;39559;48.630;9.162;2024-02-21T06:03:56;8.30;;;4.10;;
495;SDS011;39559;48.630;9.162;2024-02-21T06:06:21;8.77;;;3.87;;
495;SDS011;39559;48.630;9.162;2024-02-21T06:08:47;10.33;;;4.87;;
495;SDS011;39559;48.630;9.162;2024-02-21T06:11:12;9.77;;;4.33;;
495;SDS011;39559;48.630;9.162;2024-02-21T06:13:40;12.55;;;4.88;;
495;SDS011;39559;48.630;9.162;2024-02-21T06:18:14;10.02;;;4.65;;
495;SDS011;39559;48.630;9.162;2024-02-21T06:20:39;13.40;;;4.40;;
495;SDS011;39559;48.630;9.162;2024-02-21T06:23:06;8.25;;;4.03;;
495;SDS011;39559;48.630;9.162;2024-02-21T06:25:32;11.00;;;5.00;;
495;SDS011;39559;48.630;9.162;2024-02-21T06:27:57;8.23;;;4.40;;
495;SDS011;39559;48.630;9.162;2024-02-21T06:30:23;8.63;;;4.33;;
495;SDS011;39559;48.630;9.162;2024-02-21T06:32:48;12.83;;;5.00;;
495;SDS011;39559;48.630;9.162;2024-02-21T06:35:14;9.60;;;4.50;;
495;SDS011;39559;48.630;9.162;2024-02-21T06:37:39;9.13;;;4.70;;
495;SDS011;39559;48.630;9.162;2024-02-21T06:42:14;11.05;;;4.60;;
495;SDS011;39559;48.630;9.162;2024-02-21T06:44:39;10.53;;;5.37;;
495;SDS011;39559;48.630;9.162;2024-02-21T06:47:05;14.37;;;6.00;;
495;SDS011;39559;48.630;9.162;2024-02-21T06:49:32;13.40;;;4.50;;
495;SDS011;39559;48.630;9.162;2024-02-21T06:51:58;9.60;;;4.63;;
495;SDS011;39559;48.630;9.162;2024-02-21T06:54:23;10.63;;;4.80;;
495;SDS011;39559;48.630;9.162;2024-02-21T06:56:49;9.67;;;4.77;;
495;SDS011;39559;48.630;9.162;2024-02-21T06:59:14;10.67;;;4.33;;
495;SDS011;39559;48.630;9.162;2024-02-21T07:01:44;10.25;;;4.85;;
495;SDS011;39559;48.630;9.162;2024-02-21T07:06:14;9.60;;;4.30;;
495;SDS011;39559;48.630;9.162;2024-02-21T07:08:40;9.23;;;3.97;;
495;SDS011;39559;48.630;9.162;2024-02-21T07:11:05;12.17;;;4.60;;
495;SDS011;39559;48.630;9.162;2024-02-21T07:13:32;10.57;;;4.67;;
495;SDS011;39559;48.630;9.162;2024-02-21T07:15:58;12.48;;;4.97;;
495;SDS011;39559;48.630;9.162;2024-02-21T07:18:23;10.60;;;4.20;;
495;SDS011;39559;48.630;9.162;2024-02-21T07:20:50;10.95;;;4.72;;
495;SDS011;39559;48.630;9.162;2024-02-21T07:23:17;12.38;;;5.15;;
495;SDS011;39559;48.630;9.162;2024-02-21T07:25:43;10.38;;;5.22;;
495;SDS011;39559;48.630;9.162;2024-02-21T07:30:15;11.07;;;4.60;;
495;SDS011;39559;48.630;9.162;2024-02-21T07:32:40;12.80;;;5.40;;
495;SDS011;39559;48.630;9.162;2024-02-21T07:35:06;11.37;;;5.07;;
495;SDS011;39559;48.630;9.162;2024-02-21T07:37:36;12.30;;;5.30;;
495;SDS011;39559;48.630;9.162;2024-02-21T07:40:03;10.32;;;5.05;;
495;SDS011;39559;48.630;9.162;2024-02-21T07:42:31;10.60;;;4.30;;
495;SDS011;39559;48.630;9.162;2024-02-21T07:44:56;8.93;;;3.93;;
495;SDS011;39559;48.630;9.162;2024-02-21T07:47:22;8.03;;;4.20;;
495;SDS011;39559;48.630;9.162;2024-02-21T07:49:48;10.20;;;4.13;;
495;SDS011;39559;48.630;9.162;2024-02-21T07:54:15;9.20;;;3.58;;
495;SDS011;39559;48.630;9.162;2024-02-21T07:56:40;9.23;;;3.67;;
495;SDS011;39559;48.630;9.162;2024-02-21T07:59:06;7.67;;;3.53;;
495;SDS011;39559;48.630;9.162;2024-02-21T08:01:33;9.80;;;3.78;;
495;SDS011;39559;48.630;9.162;2024-02-21T08:03:58;8.40;;;3.33;;
495;SDS011;39559;48.630;9.162;2024-02-21T08:06:24;12.27;;;4.10;;
495;SDS011;39559;48.630;9.162;2024-02-21T08:08:50;8.00;;;3.60;;
495;SDS011;39559;48.630;9.162;2024-02-21T08:11:15;8.30;;;3.63;;
495;SDS011;39559;48.630;9.162;2024-02-21T08:13:41;8.33;;;3.60;;
495;SDS011;39559;48.630;9.162;2024-02-21T08:18:15;7.95;;;3.78;;
495;SDS011;39559;48.630;9.162;2024-02-21T08:20:41;10.13;;;3.67;;
495;SDS011;39559;48.630;9.162;2024-02-21T08:23:06;14.13;;;3.70;;
495;SDS011;39559;48.630;9.162;2024-02-21T08:25:32;8.90;;;4.13;;
495;SDS011;39559;48.630;9.162;2024-02-21T08:27:58;7.00;;;3.43;;
495;SDS011;39559;48.630;9.162;2024-02-21T08:30:24;9.38;;;3.55;;
495;SDS011;39559;48.630;9.162;2024-02-21T08:32:50;7.20;;;3.17;;
495;SDS011;39559;48.630;9.162;2024-02-21T08:35:16;9.60;;;3.77;;
495;SDS011;39559;48.630;9.162;2024-02-21T08:37:43;7.50;;;3.42;;
495;SDS011;39559;48.630;9.162;2024-02-21T08:42:16;8.35;;;3.45;;
495;SDS011;39559;48.630;9.162;2024-02-21T08:44:42;11.13;;;4.15;;
495;SDS011;39559;48.630;9.162;2024-02-21T08:47:08;12.43;;;4.30;;
495;SDS011;39559;48.630;9.162;2024-02-21T08:49:35;10.23;;;3.45;;
495;SDS011;39559;48.630;9.162;2024-02-21T08:52:01;8.97;;;3.17;;
495;SDS011;39559;48.630;9.162;2024-02-21T08:54:28;9.95;;;4.15;;
495;SDS011;39559;48.630;9.162;2024-02-21T08:56:53;9.47;;;3.37;;
495;SDS011;39559;48.630;9.162;2024-02-21T08:59:20;8.32;;;3.40;;
495;SDS011;39559;48.630;9.162;2024-02-21T09:01:46;8.77;;;3.50;;
495;SDS011;39559;48.630;9.162;2024-02-21T09:06:16;9.95;;;3.30;;
495;SDS011;39559;48.630;9.162;2024-02-21T09:08:41;7.60;;;2.80;;
495;SDS011;39559;48.630;9.162;2024-02-21T09:11:08;9.43;;;3.33;;
495;SDS011;39559;48.630;9.162;2024-02-21T09:13:34;10.00;;;3.30;;
495;SDS011;39559;48.630;9.162;2024-02-21T09:15:59;9.40;;;3.20;;
495;SDS011;39559;48.630;9.162;2024-02-21T09:18:25;9.53;;;3.03;;
495;SDS011;39559;48.630;9.162;2024-02-21T09:20:50;9.80;;;3.47;;
495;SDS011;39559;48.630;9.162;2024-02-21T09:23:16;9.53;;;3.50;;
495;SDS011;39559;48.630;9.162;2024-02-21T09:25:41;9.80;;;3.77;;
495;SDS011;39559;48.630;9.162;2024-02-21T09:30:16;8.15;;;2.95;;
495;SDS011;39559;48.630;9.162;2024-02-21T09:32:42;10.00;;;3.33;;
495;SDS011;39559;48.630;9.162;2024-02-21T09:35:07;8.77;;;3.33;;
495;SDS011;39559;48.630;9.162;2024-02-21T09:37:33;17.53;;;4.70;;
495;SDS011;39559;48.630;9.162;2024-02-21T09:39:59;7.10;;;2.83;;
495;SDS011;39559;48.630;9.162;2024-02-21T09:42:30;8.90;;;3.40;;
495;SDS011;39559;48.630;9.162;2024-02-21T09:44:59;7.00;;;3.10;;
495;SDS011;39559;48.630;9.162;2024-02-21T09:47:38;7.80;;;3.05;;
495;SDS011;39559;48.630;9.162;2024-02-21T09:50:25;7.60;;;3.40;;
495;SDS011;39559;48.630;9.162;2024-02-21T09:54:16;8.43;;;3.55;;
495;SDS011;39559;48.630;9.162;2024-02-21T09:56:46;7.28;;;2.80;;
495;SDS011;39559;48.630;9.162;2024-02-21T09:59:13;7.30;;;2.85;;
495;SDS011;39559;48.630;9.162;2024-02-21T10:01:41;7.85;;;2.60;;
495;SDS011;39559;48.630;9.162;2024-02-21T10:04:09;7.03;;;2.95;;
495;SDS011;39559;48.630;9.162;2024-02-21T10:06:35;8.23;;;3.40;;
495;SDS011;39559;48.630;9.162;2024-02-21T10:09:02;7.05;;;2.95;;
495;SDS011;39559;48.630;9.162;2024-02-21T10:11:29;7.97;;;2.83;;
495;SDS011;39559;48.630;9.162;2024-02-21T10:14:05;7.40;;;2.72;;
495;SDS011;39559;48.630;9.162;2024-02-21T10:18:17;11.00;;;3.15;;
495;SDS011;39559;48.630;9.162;2024-02-21T10:20:43;8.07;;;2.92;;
495;SDS011;39559;48.630;9.162;2024-02-21T10:23:09;7.70;;;3.50;;
495;SDS011;39559;48.630;9.162;2024-02-21T10:25:35;10.63;;;3.00;;
495;SDS011;39559;48.630;9.162;2024-02-21T10:28:03;9.13;;;3.05;;
495;SDS011;39559;48.630;9.162;2024-02-21T10:30:29;7.60;;;3.40;;
495;SDS011;39559;48.630;9.162;2024-02-21T10:32:55;7.93;;;3.10;;
495;SDS011;39559;48.630;9.162;2024-02-21T10:35:31;7.00;;;2.88;;
495;SDS011;39559;48.630;9.162;2024-02-21T10:37:57;10.20;;;3.13;;
495;SDS011;39559;48.630;9.162;2024-02-21T10:42:16;7.15;;;2.88;;
495;SDS011;39559;48.630;9.162;2024-02-21T10:44:46;6.47;;;2.72;;
495;SDS011;39559;48.630;9.162;2024-02-21T10:47:16;7.00;;;2.80;;
495;SDS011;39559;48.630;9.162;2024-02-21T10:49:46;7.70;;;2.70;;
495;SDS011;39559;48.630;9.162;2024-02-21T10:55:26;8.10;;;2.90;;
495;SDS011;39559;48.630;9.162;2024-02-21T10:58:00;6.65;;;2.53;;
495;SDS011;39559;48.630;9.162;2024-02-21T11:00:25;9.85;;;2.85;;
495;SDS011;39559;48.630;9.162;2024-02-21T11:02:56;7.00;;;2.47;;
495;SDS011;39559;48.630;9.162;2024-02-21T11:06:16;8.77;;;2.97;;
495;SDS011;39559;48.630;9.162;2024-02-21T11:08:43;7.15;;;2.80;;
495;SDS011;39559;48.630;9.162;2024-02-21T11:11:11;12.85;;;3.10;;
495;SDS011;39559;48.630;9.162;2024-02-21T11:13:42;7.43;;;2.90;;
495;SDS011;39559;48.630;9.162;2024-02-21T11:16:08;6.60;;;2.53;;
495;SDS011;39559;48.630;9.162;2024-02-21T11:18:36;7.40;;;2.67;;
495;SDS011;39559;48.630;9.162;2024-02-21T11:21:02;7.03;;;2.83;;
495;SDS011;39559;48.630;9.162;2024-02-21T11:23:30;7.05;;;2.63;;
495;SDS011;39559;48.630;9.162;2024-02-21T11:26:09;6.90;;;2.88;;
495;SDS011;39559;48.630;9.162;2024-02-21T11:30:15;6.82;;;2.60;;
495;SDS011;39559;48.630;9.162;2024-02-21T11:32:42;9.18;;;2.30;;
495;SDS011;39559;48.630;9.162;2024-02-21T11:35:08;7.30;;;2.70;;
495;SDS011;39559;48.630;9.162;2024-02-21T11:37:44;7.63;;;2.67;;
495;SDS011;39559;48.630;9.162;2024-02-21T11:40:11;7.40;;;2.50;;
495;SDS011;39559;48.630;9.162;2024-02-21T11:42:37;7.32;;;2.38;;
495;SDS011;39559;48.630;9.162;2024-02-21T11:45:03;6.73;;;2.37;;
495;SDS011;39559;48.630;9.162;2024-02-21T11:47:29;10.70;;;2.50;;
495;SDS011;39559;48.630;9.162;2024-02-21T11:49:55;7.20;;;3.00;;
495;SDS011;39559;48.630;9.162;2024-02-21T11:54:15;7.55;;;2.67;;
495;SDS011;39559;48.630;9.162;2024-02-21T11:56:42;6.50;;;2.30;;
495;SDS011;39559;48.630;9.162;2024-02-21T11:59:08;6.30;;;2.20;;
495;SDS011;39559;48.630;9.162;2024-02-21T12:01:34;7.38;;;2.65;;
495;SDS011;39559;48.630;9.162;2024-02-21T12:03:59;6.37;;;2.30;;
495;SDS011;39559;48.630;9.162;2024-02-21T12:06:25;10.23;;;3.00;;
495;SDS011;39559;48.630;9.162;2024-02-21T12:08:50;6.27;;;2.10;;
495;SDS011;39559;48.630;9.162;2024-02-21T12:13:47;8.35;;;2.33;;
495;SDS011;39559;48.630;9.162;2024-02-21T12:18:15;8.05;;;2.92;;
495;SDS011;39559;48.630;9.162;2024-02-21T12:20:41;9.07;;;2.80;;
495;SDS011;39559;48.630;9.162;2024-02-21T12:23:10;7.00;;;2.58;;
495;SDS011;39559;48.630;9.162;2024-02-21T12:25:36;7.38;;;2.33;;
495;SDS011;39559;48.630;9.162;2024-02-21T12:28:02;8.20;;;2.50;;
495;SDS011;39559;48.630;9.162;2024-02-21T12:30:29;6.97;;;2.30;;
495;SDS011;39559;48.630;9.162;2024-02-21T12:32:55;6.70;;;2.60;;
495;SDS011;39559;48.630;9.162;2024-02-21T12:35:24;8.73;;;2.63;;
495;SDS011;39559;48.630;9.162;2024-02-21T12:37:50;7.40;;;2.77;;
495;SDS011;39559;48.630;9.162;2024-02-21T12:42:13;7.25;;;2.25;;
495;SDS011;39559;48.630;9.162;2024-02-21T12:44:38;6.67;;;2.33;;
495;SDS011;39559;48.630;9.162;2024-02-21T12:47:04;7.37;;;2.43;;
495;SDS011;39559;48.630;9.162;2024-02-21T12:49:30;7.40;;;2.40;;
495;SDS011;39559;48.630;9.162;2024-02-21T12:51:55;7.20;;;2.30;;
495;SDS011;39559;48.630;9.162;2024-02-21T12:54:21;7.60;;;2.57;;
495;SDS011;39559;48.630;9.162;2024-02-21T12:56:47;6.33;;;2.40;;
495;SDS011;39559;48.630;9.162;2024-02-21T12:59:13;6.80;;;2.23;;
495;SDS011;39559;48.630;9.162;2024-02-21T13:01:39;6.88;;;2.55;;
495;SDS011;39559;48.630;9.162;2024-02-21T13:06:14;7.03;;;2.88;;
495;SDS011;39559;48.630;9.162;2024-02-21T13:08:40;8.32;;;2.53;;
495;SDS011;39559;48.630;9.162;2024-02-21T13:11:06;6.77;;;2.37;;
495;SDS011;39559;48.630;9.162;2024-02-21T13:13:32;7.33;;;2.37;;
495;SDS011;39559;48.630;9.162;2024-02-21T13:15:58;7.27;;;2.80;;
495;SDS011;39559;48.630;9.162;2024-02-21T13:18:24;7.50;;;2.70;;
495;SDS011;39559;48.630;9.162;2024-02-21T13:21:03;7.33;;;2.30;;
495;SDS011;39559;48.630;9.162;2024-02-21T13:23:29;6.60;;;2.55;;
495;SDS011;39559;48.630;9.162;2024-02-21T13:25:55;6.70;;;2.50;;
495;SDS011;39559;48.630;9.162;2024-02-21T13:30:10;6.95;;;2.55;;
495;SDS011;39559;48.630;9.162;2024-02-21T13:32:36;7.80;;;3.00;;
495;SDS011;39559;48.630;9.162;2024-02-21T13:35:02;7.10;;;2.80;;
495;SDS011;39559;48.630;9.162;2024-02-21T13:37:28;8.80;;;2.47;;
495;SDS011;39559;48.630;9.162;2024-02-21T13:39:54;6.77;;;2.47;;
495;SDS011;39559;48.630;9.162;2024-02-21T13:42:20;8.73;;;2.50;;
495;SDS011;39559;48.630;9.162;2024-02-21T13:44:45;7.47;;;2.40;;
495;SDS011;39559;48.630;9.162;2024-02-21T13:47:13;7.67;;;2.60;;
495;SDS011;39559;48.630;9.162;2024-02-21T13:49:41;6.60;;;2.20;;
495;SDS011;39559;48.630;9.162;2024-02-21T13:54:11;7.20;;;2.72;;
495;SDS011;39559;48.630;9.162;2024-02-21T13:56:39;7.55;;;2.53;;
495;SDS011;39559;48.630;9.162;2024-02-21T13:59:05;8.17;;;2.50;;
495;SDS011;39559;48.630;9.162;2024-02-21T14:01:33;7.00;;;2.77;;
495;SDS011;39559;48.630;9.162;2024-02-21T14:04:00;8.02;;;2.63;;
495;SDS011;39559;48.630;9.162;2024-02-21T14:06:29;6.30;;;2.58;;
495;SDS011;39559;48.630;9.162;2024-02-21T14:08:55;7.00;;;2.75;;
495;SDS011;39559;48.630;9.162;2024-02-21T14:11:22;6.77;;;2.60;;
495;SDS011;39559;48.630;9.162;2024-02-21T14:13:48;8.32;;;3.13;;
495;SDS011;39559;48.630;9.162;2024-02-21T14:18:07;7.95;;;2.30;;
495;SDS011;39559;48.630;9.162;2024-02-21T14:20:35;7.85;;;2.75;;
495;SDS011;39559;48.630;9.162;2024-02-21T14:23:01;8.23;;;3.00;;
495;SDS011;39559;48.630;9.162;2024-02-21T14:25:27;8.45;;;2.60;;
495;SDS011;39559;48.630;9.162;2024-02-21T14:27:53;6.83;;;2.60;;
495;SDS011;39559;48.630;9.162;2024-02-21T14:30:18;7.13;;;2.93;;
495;SDS011;39559;48.630;9.162;2024-02-21T14:32:44;10.37;;;2.70;;
495;SDS011;39559;48.630;9.162;2024-02-21T14:35:10;7.53;;;2.70;;
495;SDS011;39559;48.630;9.162;2024-02-21T14:37:36;7.70;;;2.67;;
495;SDS011;39559;48.630;9.162;2024-02-21T14:42:05;6.32;;;2.03;;
495;SDS011;39559;48.630;9.162;2024-02-21T14:44:35;6.80;;;2.53;;
495;SDS011;39559;48.630;9.162;2024-02-21T14:47:02;7.18;;;2.60;;
495;SDS011;39559;48.630;9.162;2024-02-21T14:49:29;6.50;;;2.53;;
495;SDS011;39559;48.630;9.162;2024-02-21T14:51:56;8.73;;;3.05;;
495;SDS011;39559;48.630;9.162;2024-02-21T14:54:21;7.15;;;2.70;;
495;SDS011;39559;48.630;9.162;2024-02-21T14:56:49;6.70;;;2.50;;
495;SDS011;39559;48.630;9.162;2024-02-21T14:59:15;6.10;;;2.10;;
495;SDS011;39559;48.630;9.162;2024-02-21T15:01:42;7.32;;;2.50;;
495;SDS011;39559;48.630;9.162;2024-02-21T15:06:04;7.15;;;2.65;;
495;SDS011;39559;48.630;9.162;2024-02-21T15:08:30;7.77;;;2.40;;
495;SDS011;39559;48.630;9.162;2024-02-21T15:10:55;6.90;;;2.40;;
495;SDS011;39559;48.630;9.162;2024-02-21T15:13:21;7.77;;;2.80;;
495;SDS011;39559;48.630;9.162;2024-02-21T15:15:47;7.90;;;2.42;;
495;SDS011;39559;48.630;9.162;2024-02-21T15:18:14;7.82;;;3.03;;
495;SDS011;39559;48.630;9.162;2024-02-21T15:20:43;7.00;;;2.50;;
495;SDS011;39559;48.630;9.162;2024-02-21T15:23:09;10.63;;;3.40;;
495;SDS011;39559;48.630;9.162;2024-02-21T15:25:34;6.73;;;2.63;;
495;SDS011;39559;48.630;9.162;2024-02-21T15:30:01;8.30;;;2.60;;
495;SDS011;39559;48.630;9.162;2024-02-21T15:32:27;6.90;;;2.45;;
495;SDS011;39559;48.630;9.162;2024-02-21T15:34:53;8.23;;;2.83;;
495;SDS011;39559;48.630;9.162;2024-02-21T15:37:18;8.13;;;2.83;;
495;SDS011;39559;48.630;9.162;2024-02-21T15:39:50;9.55;;;2.90;;
495;SDS011;39559;48.630;9.162;2024-02-21T15:42:17;7.18;;;2.63;;
495;SDS011;39559;48.630;9.162;2024-02-21T15:44:42;7.67;;;2.67;;
495;SDS011;39559;48.630;9.162;2024-02-21T15:47:08;7.67;;;2.43;;
495;SDS011;39559;48.630;9.162;2024-02-21T15:49:33;6.50;;;2.17;;
495;SDS011;39559;48.630;9.162;2024-02-21T15:53:59;6.95;;;2.42;;
495;SDS011;39559;48.630;9.162;2024-02-21T15:56:25;7.00;;;2.47;;
495;SDS011;39559;48.630;9.162;2024-02-21T15:58:52;6.82;;;2.33;;
495;SDS011;39559;48.630;9.162;2024-02-21T16:01:18;8.30;;;2.77;;
495;SDS011;39559;48.630;9.162;2024-02-21T16:03:43;6.30;;;2.23;;
495;SDS011;39559;48.630;9.162;2024-02-21T16:06:09;6.13;;;2.33;;
495;SDS011;39559;48.630;9.162;2024-02-21T16:08:34;7.00;;;2.40;;
495;SDS011;39559;48.630;9.162;2024-02-21T16:11:04;6.93;;;2.60;;
495;SDS011;39559;48.630;9.162;2024-02-21T16:13:30;7.20;;;2.47;;
495;SDS011;39559;48.630;9.162;2024-02-21T16:17:56;9.02;;;2.63;;
495;SDS011;39559;48.630;9.162;2024-02-21T16:20:24;6.63;;;2.30;;
495;SDS011;39559;48.630;9.162;2024-02-21T16:22:49;6.17;;;2.20;;
495;SDS011;39559;48.630;9.162;2024-02-21T16:25:15;7.27;;;2.47;;
495;SDS011;39559;48.630;9.162;2024-02-21T16:27:49;6.75;;;2.70;;
495;SDS011;39559;48.630;9.162;2024-02-21T16:30:15;7.07;;;2.70;;
495;SDS011;39559;48.630;9.162;2024-02-21T16:32:42;6.88;;;2.40;;